Time;durP1;ratioP1;P1;durP2;ratioP2;P2;SDS_P1;SDS_P2;PMS_P1;PMS_P2;Temp;Humidity;BMP_temperature;BMP_pressure;BME280_temperature;BME280_humidity;BME280_pressure;Samples;Min_cycle;Max_cycle;Signal;HPM_P1;HPM_P2
2022/03/22 00:00:57;;;;;;;;;;;;;;;10.55;22.58;101589.34;4485541;31;34063;-59
2022/03/22 00:03:25;;;;;;;;;;;;;;;10.58;22.08;101589.19;4482698;31;34183;-60
2022/03/22 00:05:57;;;;;;;;;;;;;;;10.18;22.91;101589.16;4485089;31;34038;-61
2022/03/22 00:08:25;;;;;;;;;;;;;;;9.84;23.14;101592.41;4484151;31;34229;-60
2022/03/22 00:10:53;;;;;;;;;;;;;;;10.00;23.00;101588.12;4487293;31;34147;-59
2022/03/22 00:13:20;;;;;;;;;;;;;;;9.82;22.81;101586.22;4484239;31;34093;-61
2022/03/22 00:15:50;;;;;;;;;;;;;;;10.26;22.74;101586.16;4490014;31;34697;-59
2022/03/22 00:18:38;;;;;;;;;;;;;;;10.16;23.05;101592.81;4485191;31;35135;-61
2022/03/22 00:21:06;;;;;;;;;;;;;;;9.92;23.97;101584.94;4487546;31;35399;-60
2022/03/22 00:23:34;;;;;;;;;;;;;;;9.75;24.35;101587.44;4483574;31;34199;-60
2022/03/22 00:26:03;;;;;;;;;;;;;;;9.70;24.56;101581.41;4488725;31;32084;-60
2022/03/22 00:28:31;;;;;;;;;;;;;;;9.79;23.91;101586.34;4483346;31;34235;-60
2022/03/22 00:30:58;;;;;;;;;;;;;;;9.66;24.30;101586.03;4484337;31;34167;-62
2022/03/22 00:33:26;;;;;;;;;;;;;;;9.94;23.67;101585.72;4482071;31;35250;-60
2022/03/22 00:35:54;;;;;;;;;;;;;;;9.71;24.06;101584.03;4483235;31;32106;-63
2022/03/22 00:38:22;;;;;;;;;;;;;;;9.92;24.14;101589.37;4482967;31;34182;-61
2022/03/22 00:40:50;;;;;;;;;;;;;;;9.67;23.92;101585.09;4486827;31;34259;-62
2022/03/22 00:43:18;;;;;;;;;;;;;;;9.82;23.55;101588.03;4493204;31;35265;-60
2022/03/22 00:45:48;;;;;;;;;;;;;;;9.79;24.11;101586.34;4486459;31;33122;-62
2022/03/22 00:48:15;;;;;;;;;;;;;;;9.54;24.14;101586.53;4489827;31;34097;-59
2022/03/22 00:50:44;;;;;;;;;;;;;;;10.06;23.04;101588.81;4484550;31;34716;-60
2022/03/22 00:53:13;;;;;;;;;;;;;;;9.49;23.36;101578.69;4487991;31;35108;-60
2022/03/22 00:55:40;;;;;;;;;;;;;;;8.91;25.02;101585.50;4493235;31;34632;-60
2022/03/22 00:58:08;;;;;;;;;;;;;;;9.40;23.84;101586.22;4482222;31;34234;-60
2022/03/22 01:00:37;;;;;;;;;;;;;;;9.16;25.15;101588.94;4484037;31;34495;-60
2022/03/22 01:03:05;;;;;;;;;;;;;;;9.14;25.67;101584.59;4487025;31;33105;-61
2022/03/22 01:05:34;;;;;;;;;;;;;;;9.45;24.29;101578.87;4486962;31;34236;-60
2022/03/22 01:08:03;;;;;;;;;;;;;;;9.78;23.66;101576.59;4486235;31;35285;-60
2022/03/22 01:10:32;;;;;;;;;;;;;;;9.59;24.27;101584.53;4482579;31;34213;-61
2022/03/22 01:13:00;;;;;;;;;;;;;;;9.32;25.46;101583.88;4490971;31;33951;-59
2022/03/22 01:15:32;;;;;;;;;;;;;;;8.59;25.83;101585.78;4495609;31;33491;-60
2022/03/22 01:18:06;;;;;;;;;;;;;;;9.53;23.67;101576.75;4486642;31;34869;-59
2022/03/22 01:20:34;;;;;;;;;;;;;;;9.60;24.15;101569.34;4491714;31;32892;-59
2022/03/22 01:23:03;;;;;;;;;;;;;;;8.97;24.44;101569.22;4499812;31;35177;-59
2022/03/22 01:25:32;;;;;;;;;;;;;;;9.23;24.29;101577.06;4496636;31;33430;-60
2022/03/22 01:27:59;;;;;;;;;;;;;;;9.32;23.82;101565.16;4487229;31;34161;-61
2022/03/22 01:30:27;;;;;;;;;;;;;;;9.24;24.23;101567.25;4494798;31;34279;-60
2022/03/22 01:32:55;;;;;;;;;;;;;;;9.05;25.03;101567.09;4497349;31;34232;-61
2022/03/22 01:35:28;;;;;;;;;;;;;;;8.99;25.84;101570.91;4489468;31;32239;-60
2022/03/22 01:37:56;;;;;;;;;;;;;;;9.17;24.46;101574.66;4491861;31;34093;-60
2022/03/22 01:40:25;;;;;;;;;;;;;;;8.79;25.10;101568.13;4494620;31;34242;-60
2022/03/22 01:42:53;;;;;;;;;;;;;;;8.51;25.43;101573.66;4471910;31;34279;-60
2022/03/22 01:45:20;;;;;;;;;;;;;;;8.27;27.32;101570.91;4484973;31;34018;-60
2022/03/22 01:47:48;;;;;;;;;;;;;;;8.54;25.36;101563.75;4491186;31;33907;-62
2022/03/22 01:50:17;;;;;;;;;;;;;;;8.40;25.49;101566.03;4490555;31;33046;-61
2022/03/22 01:52:45;;;;;;;;;;;;;;;8.37;25.87;101564.31;4486228;31;33907;-59
2022/03/22 01:55:14;;;;;;;;;;;;;;;8.40;25.38;101566.91;4495729;31;32245;-60
2022/03/22 01:57:42;;;;;;;;;;;;;;;8.52;25.07;101564.72;4482947;31;34082;-60
2022/03/22 02:00:11;;;;;;;;;;;;;;;8.42;25.27;101566.00;4485162;31;34069;-60
2022/03/22 02:05:55;;;;;;;;;;;;;;;8.38;26.44;101555.44;4480552;31;33929;-60
2022/03/22 02:08:26;;;;;;;;;;;;;;;8.88;25.08;101549.09;4482214;31;33012;-59
2022/03/22 02:10:54;;;;;;;;;;;;;;;8.44;26.54;101556.97;4487772;31;35260;-60
2022/03/22 02:13:22;;;;;;;;;;;;;;;9.00;24.38;101553.94;4480281;31;33942;-59
2022/03/22 02:15:54;;;;;;;;;;;;;;;9.10;24.18;101547.31;4481730;31;32255;-60
2022/03/22 02:18:24;;;;;;;;;;;;;;;9.04;24.30;101549.34;4469786;31;33188;-60
2022/03/22 02:20:54;;;;;;;;;;;;;;;8.83;24.63;101551.94;4467732;31;35922;-59
2022/03/22 02:23:39;;;;;;;;;;;;;;;8.69;26.84;101548.06;4483200;31;32853;-59
2022/03/22 02:26:07;;;;;;;;;;;;;;;8.31;26.76;101547.66;4484698;31;32602;-59
2022/03/22 02:28:38;;;;;;;;;;;;;;;8.84;24.86;101544.81;4485160;31;34125;-59
2022/03/22 02:31:07;;;;;;;;;;;;;;;8.91;24.81;101540.97;4481757;31;34144;-59
2022/03/22 02:33:42;;;;;;;;;;;;;;;8.28;26.29;101543.31;4484018;31;32742;-59
2022/03/22 02:36:11;;;;;;;;;;;;;;;8.87;25.29;101550.03;4487227;31;33365;-60
2022/03/22 02:38:41;;;;;;;;;;;;;;;8.82;24.50;101547.53;4488574;31;32987;-60
2022/03/22 02:41:17;;;;;;;;;;;;;;;8.91;24.22;101543.62;4482077;31;33213;-59
2022/03/22 02:43:48;;;;;;;;;;;;;;;8.94;24.36;101546.19;4489655;31;33515;-60
2022/03/22 02:46:24;;;;;;;;;;;;;;;8.71;25.48;101546.22;4482513;31;31956;-59
2022/03/22 02:48:54;;;;;;;;;;;;;;;8.75;25.74;101540.69;4486366;31;34400;-60
2022/03/22 02:51:23;;;;;;;;;;;;;;;8.37;25.34;101552.75;4480823;31;35213;-60
2022/03/22 02:53:52;;;;;;;;;;;;;;;8.60;25.01;101547.50;4485640;31;34041;-60
2022/03/22 02:56:21;;;;;;;;;;;;;;;8.47;25.48;101543.53;4480291;31;32157;-60
2022/03/22 02:58:51;;;;;;;;;;;;;;;8.50;24.98;101551.41;4482225;31;32894;-60
2022/03/22 03:01:20;;;;;;;;;;;;;;;8.31;25.95;101545.84;4487659;31;33984;-59
2022/03/22 03:03:50;;;;;;;;;;;;;;;8.46;25.04;101554.28;4491341;31;34147;-60
2022/03/22 03:06:20;;;;;;;;;;;;;;;8.65;24.93;101544.63;4487884;31;33507;-60
2022/03/22 03:08:51;;;;;;;;;;;;;;;7.97;25.88;101556.88;4493568;31;33093;-60
2022/03/22 03:11:21;;;;;;;;;;;;;;;8.12;25.67;101558.13;4482029;31;34362;-60
2022/03/22 03:16:39;;;;;;;;;;;;;;;7.58;28.42;101557.34;4485321;31;33990;-59
2022/03/22 03:19:10;;;;;;;;;;;;;;;8.29;25.44;101560.19;4487746;31;33923;-60
2022/03/22 03:21:38;;;;;;;;;;;;;;;8.22;26.57;101564.00;4482370;31;34420;-61
2022/03/22 03:24:07;;;;;;;;;;;;;;;7.97;25.88;101562.22;4480519;31;34002;-59
2022/03/22 03:26:38;;;;;;;;;;;;;;;7.86;27.42;101565.22;4483289;31;34406;-59
2022/03/22 03:29:09;;;;;;;;;;;;;;;8.20;26.49;101565.87;4484439;31;32977;-59
2022/03/22 03:31:39;;;;;;;;;;;;;;;8.16;25.64;101567.78;4486649;31;33960;-60
2022/03/22 03:34:09;;;;;;;;;;;;;;;8.42;25.16;101571.31;4484835;31;34550;-59
2022/03/22 03:36:39;;;;;;;;;;;;;;;8.55;25.18;101562.81;4491432;31;33461;-58
2022/03/22 03:39:08;;;;;;;;;;;;;;;8.60;25.08;101568.84;4497469;31;34339;-59
2022/03/22 03:41:56;;;;;;;;;;;;;;;8.29;26.45;101566.41;4488504;31;33584;-59
2022/03/22 03:47:17;;;;;;;;;;;;;;;8.39;25.34;101554.50;4494628;31;33482;-59
2022/03/22 03:49:51;;;;;;;;;;;;;;;8.44;25.68;101554.31;4495500;31;34212;-59
2022/03/22 03:52:24;;;;;;;;;;;;;;;8.68;24.86;101551.66;4488638;31;35152;-59
2022/03/22 03:54:54;;;;;;;;;;;;;;;8.17;25.63;101556.16;4482844;31;33580;-59
2022/03/22 03:57:24;;;;;;;;;;;;;;;8.21;25.29;101556.91;4482916;31;34304;-59
2022/03/22 03:59:53;;;;;;;;;;;;;;;8.38;25.10;101560.75;4492818;31;34360;-59
2022/03/22 04:02:23;;;;;;;;;;;;;;;8.33;25.50;101556.47;4485034;31;34141;-60
2022/03/22 04:04:53;;;;;;;;;;;;;;;7.93;25.62;101556.13;4488644;31;34686;-59
2022/03/22 04:07:22;;;;;;;;;;;;;;;7.67;27.54;101566.78;4484158;31;33778;-59
2022/03/22 04:09:51;;;;;;;;;;;;;;;7.88;27.47;101566.06;4482400;31;33799;-59
2022/03/22 04:12:24;;;;;;;;;;;;;;;8.09;26.58;101568.91;4483749;31;34832;-60
2022/03/22 04:14:54;;;;;;;;;;;;;;;7.86;27.56;101567.03;4491626;31;33661;-59
2022/03/22 04:17:28;;;;;;;;;;;;;;;8.12;27.26;101571.44;4485933;31;33666;-59
2022/03/22 04:20:05;;;;;;;;;;;;;;;8.35;26.65;101574.19;4492330;31;33548;-60
2022/03/22 04:22:34;;;;;;;;;;;;;;;8.17;26.60;101573.03;4485561;31;34346;-60
2022/03/22 04:25:04;;;;;;;;;;;;;;;8.32;26.63;101579.63;4488290;31;34630;-59
2022/03/22 04:33:09;;;;;;;;;;;;;;;8.88;25.30;101577.59;4482851;31;32766;-60
2022/03/22 04:35:39;;;;;;;;;;;;;;;8.79;25.14;101590.34;4487255;31;34003;-60
2022/03/22 04:38:08;;;;;;;;;;;;;;;8.85;24.99;101590.13;4484154;31;32556;-60
2022/03/22 04:40:39;;;;;;;;;;;;;;;8.60;24.92;101587.53;4482121;31;34873;-59
2022/03/22 04:43:09;;;;;;;;;;;;;;;8.48;25.21;101585.31;4488441;31;32759;-59
2022/03/22 04:45:39;;;;;;;;;;;;;;;8.59;25.05;101582.25;4490505;31;34085;-59
2022/03/22 04:48:08;;;;;;;;;;;;;;;8.36;25.30;101597.25;4485777;31;33738;-59
2022/03/22 04:50:38;;;;;;;;;;;;;;;8.28;26.23;101594.00;4487594;31;33091;-60
2022/03/22 04:58:43;;;;;;;;;;;;;;;8.15;26.10;101596.25;4493132;31;34450;-59
2022/03/22 05:01:14;;;;;;;;;;;;;;;7.75;27.88;101598.53;4482384;31;33719;-59
2022/03/22 05:03:44;;;;;;;;;;;;;;;7.89;28.09;101604.25;4492611;31;34060;-59
2022/03/22 05:06:35;;;;;;;;;;;;;;;8.44;26.15;101598.81;4492247;31;35405;-59
2022/03/22 05:09:05;;;;;;;;;;;;;;;8.50;26.86;101598.59;4492332;31;34662;-59
2022/03/22 05:11:34;;;;;;;;;;;;;;;8.65;26.40;101597.16;4487578;31;34585;-59
2022/03/22 05:14:03;;;;;;;;;;;;;;;8.76;25.19;101600.28;4484140;31;34935;-59
2022/03/22 05:16:34;;;;;;;;;;;;;;;8.58;26.29;101604.53;4484677;31;32938;-60
2022/03/22 05:19:07;;;;;;;;;;;;;;;8.63;26.40;101594.53;4486978;31;36578;-59
2022/03/22 05:21:34;;;;;;;;;;;;;;;8.74;25.59;101597.69;4495658;31;33519;-59
2022/03/22 05:24:03;;;;;;;;;;;;;;;8.74;25.94;101596.81;4486272;31;35429;-60
2022/03/22 05:26:32;;;;;;;;;;;;;;;8.46;25.91;101605.84;4489540;31;35485;-59
2022/03/22 05:29:02;;;;;;;;;;;;;;;8.37;25.76;101603.47;4490646;31;34591;-60
2022/03/22 05:31:31;;;;;;;;;;;;;;;8.65;25.46;101602.50;4485611;31;33986;-60
2022/03/22 05:34:03;;;;;;;;;;;;;;;8.55;26.39;101604.62;4488889;31;33224;-60
2022/03/22 05:36:34;;;;;;;;;;;;;;;8.39;27.14;101599.84;4481947;31;33321;-59
2022/03/22 05:39:02;;;;;;;;;;;;;;;8.54;25.79;101610.88;4491158;31;32250;-60
2022/03/22 05:41:32;;;;;;;;;;;;;;;8.63;25.61;101605.22;4482233;31;35236;-60
2022/03/22 05:44:00;;;;;;;;;;;;;;;8.69;25.53;101602.31;4481878;31;33374;-60
2022/03/22 05:46:30;;;;;;;;;;;;;;;8.59;25.46;101607.13;4481776;31;34380;-60
2022/03/22 05:49:00;;;;;;;;;;;;;;;8.30;27.19;101607.28;4483324;31;33437;-60
2022/03/22 05:51:30;;;;;;;;;;;;;;;8.72;25.83;101596.00;4483719;31;34098;-62
2022/03/22 05:54:03;;;;;;;;;;;;;;;8.77;26.70;101602.03;4480240;31;33497;-62
2022/03/22 05:56:33;;;;;;;;;;;;;;;9.13;26.15;101606.91;4488649;31;33207;-63
2022/03/22 05:59:02;;;;;;;;;;;;;;;9.25;24.89;101612.63;4484713;31;33510;-62
2022/03/22 06:01:32;;;;;;;;;;;;;;;9.37;25.48;101618.41;4487237;31;35278;-61
2022/03/22 06:04:03;;;;;;;;;;;;;;;9.45;25.22;101619.84;4489395;31;34131;-62
2022/03/22 06:06:32;;;;;;;;;;;;;;;9.71;26.12;101624.13;4482058;31;33264;-63
2022/03/22 06:09:01;;;;;;;;;;;;;;;9.83;26.32;101627.25;4484440;31;33360;-63
2022/03/22 06:11:35;;;;;;;;;;;;;;;10.28;25.79;101623.56;4484871;31;36084;-63
2022/03/22 06:14:06;;;;;;;;;;;;;;;10.30;25.41;101621.69;4491049;31;34402;-62
2022/03/22 06:16:36;;;;;;;;;;;;;;;10.71;24.45;101620.69;4485450;31;33065;-63
2022/03/22 06:19:06;;;;;;;;;;;;;;;10.81;24.11;101622.97;4485355;31;34638;-62
2022/03/22 06:21:35;;;;;;;;;;;;;;;10.82;25.27;101622.00;4481970;31;35007;-62
2022/03/22 06:24:04;;;;;;;;;;;;;;;11.16;24.58;101618.62;4483977;31;32814;-63
2022/03/22 06:26:35;;;;;;;;;;;;;;;11.28;23.53;101622.56;4482560;31;33856;-63
2022/03/22 06:29:04;;;;;;;;;;;;;;;11.36;23.86;101626.63;4488911;31;32609;-61
2022/03/22 06:31:35;;;;;;;;;;;;;;;11.47;24.88;101628.75;4483209;31;32888;-66
2022/03/22 06:34:04;;;;;;;;;;;;;;;11.61;24.51;101630.75;4484476;31;34963;-64
2022/03/22 06:36:33;;;;;;;;;;;;;;;11.93;24.52;101636.38;4483146;31;34445;-64
2022/03/22 06:39:09;;;;;;;;;;;;;;;12.44;23.43;101631.97;4483300;31;33478;-63
2022/03/22 06:41:43;;;;;;;;;;;;;;;12.92;22.95;101632.97;4481597;31;33160;-63
2022/03/22 06:44:12;;;;;;;;;;;;;;;13.49;22.75;101631.56;4480334;31;32907;-64
2022/03/22 06:46:40;;;;;;;;;;;;;;;13.79;20.98;101641.53;4481319;31;32946;-61
2022/03/22 06:49:09;;;;;;;;;;;;;;;13.88;21.24;101634.75;4482837;31;33448;-61
2022/03/22 06:51:38;;;;;;;;;;;;;;;14.01;20.86;101630.37;4481827;31;33974;-62
2022/03/22 06:54:07;;;;;;;;;;;;;;;13.99;21.36;101632.28;4483434;31;34362;-62
2022/03/22 06:56:41;;;;;;;;;;;;;;;14.12;20.64;101627.88;4483610;31;33157;-62
2022/03/22 06:59:27;;;;;;;;;;;;;;;14.25;20.29;101628.00;4487767;31;32584;-62
2022/03/22 07:02:05;;;;;;;;;;;;;;;14.34;21.11;101632.00;4490302;31;31872;-63
2022/03/22 07:04:43;;;;;;;;;;;;;;;14.44;21.39;101631.34;4489624;31;33435;-61
2022/03/22 07:07:22;;;;;;;;;;;;;;;14.63;21.29;101630.22;4492917;31;32999;-62
2022/03/22 07:10:01;;;;;;;;;;;;;;;14.71;21.90;101640.56;4487556;31;33498;-62
2022/03/22 07:12:48;;;;;;;;;;;;;;;14.63;21.35;101631.09;4489045;31;33270;-62
2022/03/22 07:15:31;;;;;;;;;;;;;;;15.02;21.11;101631.38;4485592;31;32985;-62
2022/03/22 07:18:13;;;;;;;;;;;;;;;15.34;20.91;101621.22;4488114;31;33272;-62
2022/03/22 07:20:47;;;;;;;;;;;;;;;15.61;18.99;101635.62;4485745;31;32478;-62
2022/03/22 07:23:21;;;;;;;;;;;;;;;15.49;19.96;101636.44;4493527;31;32938;-63
2022/03/22 07:25:58;;;;;;;;;;;;;;;15.69;21.02;101631.56;4491184;31;34548;-62
2022/03/22 07:28:34;;;;;;;;;;;;;;;15.99;19.63;101639.47;4489629;31;35470;-62
2022/03/22 07:31:17;;;;;;;;;;;;;;;16.70;19.65;101625.53;4485044;31;32321;-63
2022/03/22 07:33:52;;;;;;;;;;;;;;;16.92;18.44;101626.75;4491464;31;34362;-62
2022/03/22 07:36:25;;;;;;;;;;;;;;;16.79;18.07;101632.16;4495177;31;33583;-62
2022/03/22 07:39:20;;;;;;;;;;;;;;;15.57;17.30;101639.50;4484630;31;34334;-63
2022/03/22 07:41:53;;;;;;;;;;;;;;;16.30;17.60;101636.38;4367694;31;3772912;-63
2022/03/22 07:44:27;;;;;;;;;;;;;;;16.70;17.31;101641.75;4486826;31;33119;-63
2022/03/22 07:46:57;;;;;;;;;;;;;;;16.87;17.40;101632.47;4485251;31;31932;-62
2022/03/22 07:55:10;;;;;;;;;;;;;;;16.49;16.75;101640.53;4497297;31;33184;-62
2022/03/22 07:57:40;;;;;;;;;;;;;;;17.04;16.45;101633.09;4473056;31;34212;-61
2022/03/22 08:00:14;;;;;;;;;;;;;;;18.50;14.95;101633.87;4488088;31;33213;-61
2022/03/22 08:02:51;;;;;;;;;;;;;;;18.89;14.90;101639.87;4491676;31;34503;-62
2022/03/22 08:05:27;;;;;;;;;;;;;;;18.80;15.09;101631.47;4486919;31;35325;-62
2022/03/22 08:08:06;;;;;;;;;;;;;;;20.39;13.67;101632.84;4486627;31;34158;-63
2022/03/22 08:10:59;;;;;;;;;;;;;;;19.54;14.28;101629.06;4490618;31;34500;-62
2022/03/22 08:13:38;;;;;;;;;;;;;;;19.29;14.12;101627.53;4486243;31;33986;-62
2022/03/22 08:16:15;;;;;;;;;;;;;;;21.15;13.06;101628.88;4483838;31;32824;-63
2022/03/22 08:18:50;;;;;;;;;;;;;;;21.02;12.93;101630.06;4492375;31;34441;-62
2022/03/22 08:21:25;;;;;;;;;;;;;;;20.71;13.28;101630.09;4493094;31;34587;-62
2022/03/22 08:24:03;;;;;;;;;;;;;;;20.65;13.44;101619.75;4487978;31;33173;-62
2022/03/22 08:26:46;;;;;;;;;;;;;;;20.05;13.82;101624.00;4485319;31;34450;-62
2022/03/22 08:29:29;;;;;;;;;;;;;;;19.27;14.40;101621.34;4486947;31;34159;-62
2022/03/22 08:32:04;;;;;;;;;;;;;;;18.75;14.94;101614.72;4493053;31;34269;-62
2022/03/22 08:34:44;;;;;;;;;;;;;;;18.79;15.03;101620.75;4485497;31;33767;-63
2022/03/22 08:37:21;;;;;;;;;;;;;;;17.28;15.53;101614.22;4492318;31;32810;-62
2022/03/22 08:40:00;;;;;;;;;;;;;;;16.79;16.66;101617.75;4485794;31;33453;-62
2022/03/22 08:42:37;;;;;;;;;;;;;;;17.86;15.83;101620.72;4486692;31;34467;-62
2022/03/22 08:45:19;;;;;;;;;;;;;;;16.93;16.49;101613.09;4485089;32;32513;-62
2022/03/22 08:48:09;;;;;;;;;;;;;;;16.92;16.49;101616.78;4489299;31;34371;-62
2022/03/22 08:50:44;;;;;;;;;;;;;;;17.15;16.03;101612.41;4489914;31;32963;-61
2022/03/22 08:53:32;;;;;;;;;;;;;;;17.33;15.93;101603.91;4490308;31;34149;-62
2022/03/22 08:56:09;;;;;;;;;;;;;;;17.41;16.65;101610.47;4484644;31;33403;-62
2022/03/22 08:58:42;;;;;;;;;;;;;;;17.31;16.08;101597.75;4490939;31;32867;-62
2022/03/22 09:01:25;;;;;;;;;;;;;;;17.13;16.39;101599.97;4493741;31;34552;-62
2022/03/22 09:07:03;;;;;;;;;;;;;;;17.88;15.73;101595.25;4499400;31;33213;-62
2022/03/22 09:09:37;;;;;;;;;;;;;;;18.14;15.80;101595.09;4494672;31;34155;-62
2022/03/22 09:12:25;;;;;;;;;;;;;;;18.48;14.90;101590.59;4490106;31;35008;-62
2022/03/22 09:15:05;;;;;;;;;;;;;;;16.54;16.12;101598.69;4487645;31;35352;-62
2022/03/22 09:17:44;;;;;;;;;;;;;;;18.07;15.68;101599.25;4485167;31;32217;-62
2022/03/22 09:20:32;;;;;;;;;;;;;;;18.36;15.54;101583.44;4491462;31;33126;-62
2022/03/22 09:23:15;;;;;;;;;;;;;;;17.34;15.80;101590.28;4489819;31;33333;-62
2022/03/22 09:26:00;;;;;;;;;;;;;;;18.45;15.34;101582.72;4489960;31;32990;-62
2022/03/22 09:28:40;;;;;;;;;;;;;;;18.53;15.09;101577.56;4486543;31;32231;-62
2022/03/22 09:31:15;;;;;;;;;;;;;;;17.29;15.92;101581.63;4485330;31;33034;-63
2022/03/22 09:33:56;;;;;;;;;;;;;;;18.61;15.39;101574.22;4498611;31;33583;-62
2022/03/22 09:36:35;;;;;;;;;;;;;;;18.74;14.72;101576.84;4490194;31;35265;-62
2022/03/22 09:39:19;;;;;;;;;;;;;;;19.17;14.23;101574.25;4492693;31;33728;-62
2022/03/22 09:41:56;;;;;;;;;;;;;;;18.83;14.26;101576.97;4485600;31;32850;-62
2022/03/22 09:44:31;;;;;;;;;;;;;;;20.08;13.97;101569.37;4484392;31;34186;-62
2022/03/22 09:47:13;;;;;;;;;;;;;;;20.19;14.20;101569.31;4492410;31;34296;-62
2022/03/22 09:49:51;;;;;;;;;;;;;;;20.40;14.37;101574.75;4484667;31;33465;-62
2022/03/22 09:52:31;;;;;;;;;;;;;;;19.98;13.52;101564.72;4491201;31;33208;-63
2022/03/22 09:55:16;;;;;;;;;;;;;;;19.74;14.33;101567.69;4472681;32;33432;-62
2022/03/22 09:57:50;;;;;;;;;;;;;;;20.15;13.87;101562.41;4485432;31;33788;-62
2022/03/22 10:00:28;;;;;;;;;;;;;;;20.03;14.29;101564.31;4485048;31;33686;-62
2022/03/22 10:03:26;;;;;;;;;;;;;;;20.34;14.11;101553.53;4493997;31;32993;-62
2022/03/22 10:06:09;;;;;;;;;;;;;;;20.62;14.05;101552.84;4485776;31;33976;-62
2022/03/22 10:08:53;;;;;;;;;;;;;;;20.72;13.52;101549.31;4485301;31;33230;-62
2022/03/22 10:11:36;;;;;;;;;;;;;;;20.29;13.90;101544.88;4489032;31;33565;-63
2022/03/22 10:14:18;;;;;;;;;;;;;;;20.49;13.21;101552.19;4490732;31;32802;-63
2022/03/22 10:17:11;;;;;;;;;;;;;;;19.90;13.12;101544.63;4498823;31;35110;-62
2022/03/22 10:19:52;;;;;;;;;;;;;;;20.66;13.26;101537.12;4488923;31;33194;-63
2022/03/22 10:22:23;;;;;;;;;;;;;;;20.75;13.55;101535.44;4489682;31;32340;-63
2022/03/22 10:24:55;;;;;;;;;;;;;;;20.83;13.23;101538.31;4485864;31;36742;-63
2022/03/22 10:27:26;;;;;;;;;;;;;;;20.69;13.25;101534.13;4493802;31;33383;-63
2022/03/22 10:30:17;;;;;;;;;;;;;;;20.76;13.06;101537.16;4497464;31;34440;-62
2022/03/22 10:32:52;;;;;;;;;;;;;;;20.64;13.29;101525.50;4488490;31;33126;-63
2022/03/22 10:35:29;;;;;;;;;;;;;;;20.83;12.84;101522.84;4488923;31;33554;-63
2022/03/22 10:38:09;;;;;;;;;;;;;;;21.05;12.77;101531.81;4492683;31;31363;-63
2022/03/22 10:40:47;;;;;;;;;;;;;;;21.49;12.95;101516.84;4476312;31;34270;-62
2022/03/22 10:43:26;;;;;;;;;;;;;;;21.46;12.13;101522.59;4487157;31;33681;-63
2022/03/22 10:46:00;;;;;;;;;;;;;;;22.13;13.27;101517.25;4483974;31;31848;-64
2022/03/22 10:48:37;;;;;;;;;;;;;;;22.74;12.27;101512.16;4484968;31;35407;-62
2022/03/22 10:51:11;;;;;;;;;;;;;;;22.54;11.57;101505.09;4487261;31;34343;-64
2022/03/22 10:53:45;;;;;;;;;;;;;;;22.67;11.74;101510.19;4491132;31;34584;-64
2022/03/22 10:56:22;;;;;;;;;;;;;;;21.91;12.26;101502.91;4486832;31;33084;-64
2022/03/22 10:58:51;;;;;;;;;;;;;;;21.66;13.10;101498.06;4473351;31;33058;-64
2022/03/22 11:01:20;;;;;;;;;;;;;;;23.10;11.74;101495.03;4470516;32;35347;-65
2022/03/22 11:03:50;;;;;;;;;;;;;;;22.95;12.24;101497.41;4491352;31;33403;-65
2022/03/22 11:06:23;;;;;;;;;;;;;;;23.20;12.14;101490.38;4483973;31;34028;-65
2022/03/22 11:09:06;;;;;;;;;;;;;;;23.30;12.21;101485.69;4471522;32;33538;-66
2022/03/22 11:11:39;;;;;;;;;;;;;;;23.24;11.21;101484.47;4485838;31;34296;-66
2022/03/22 11:14:11;;;;;;;;;;;;;;;22.64;11.56;101478.59;4481473;31;32623;-65
2022/03/22 11:16:50;;;;;;;;;;;;;;;22.82;11.98;101473.19;4480168;31;32930;-66
2022/03/22 11:19:23;;;;;;;;;;;;;;;23.69;11.27;101471.72;4470204;31;33355;-67
2022/03/22 11:21:51;;;;;;;;;;;;;;;23.85;11.63;101468.25;4472219;31;33285;-66
2022/03/22 11:24:22;;;;;;;;;;;;;;;23.60;11.64;101469.94;4486012;31;32685;-66
2022/03/22 11:26:57;;;;;;;;;;;;;;;22.85;12.71;101461.94;4492881;31;32194;-66
2022/03/22 11:29:31;;;;;;;;;;;;;;;23.73;10.88;101459.47;4487746;31;34227;-65
2022/03/22 11:34:58;;;;;;;;;;;;;;;23.29;11.47;101456.66;4487807;31;32319;-66
2022/03/22 11:37:32;;;;;;;;;;;;;;;23.54;10.87;101445.97;4491047;31;34220;-66
2022/03/22 11:43:10;;;;;;;;;;;;;;;24.10;11.54;101440.06;4482707;31;34666;-65
2022/03/22 11:45:50;;;;;;;;;;;;;;;23.76;11.33;101436.44;4484325;31;34294;-65
2022/03/22 11:48:33;;;;;;;;;;;;;;;23.64;11.69;101439.38;4482877;31;33991;-65
2022/03/22 11:51:13;;;;;;;;;;;;;;;24.61;10.81;101434.69;4486563;31;34248;-65
2022/03/22 11:53:48;;;;;;;;;;;;;;;24.35;10.94;101424.63;4490202;31;33303;-64
2022/03/22 11:56:26;;;;;;;;;;;;;;;23.93;11.59;101421.84;4488971;31;32719;-65
2022/03/22 11:58:59;;;;;;;;;;;;;;;23.96;11.27;101424.25;4485363;31;33841;-64
2022/03/22 12:01:38;;;;;;;;;;;;;;;23.79;11.85;101423.31;4483695;31;33385;-64
2022/03/22 12:04:15;;;;;;;;;;;;;;;24.11;10.84;101419.91;4488690;31;34270;-65
2022/03/22 12:06:45;;;;;;;;;;;;;;;23.82;11.12;101414.78;4490430;31;33335;-64
2022/03/22 12:09:14;;;;;;;;;;;;;;;23.77;11.00;101402.59;4485176;31;34277;-63
2022/03/22 12:11:48;;;;;;;;;;;;;;;24.20;11.57;101406.25;4483388;31;34042;-62
2022/03/22 12:14:26;;;;;;;;;;;;;;;23.76;10.80;101404.47;4493493;31;33027;-63
2022/03/22 12:16:56;;;;;;;;;;;;;;;24.07;12.74;101399.34;4487033;31;32388;-62
2022/03/22 12:19:32;;;;;;;;;;;;;;;23.63;11.05;101399.41;4487777;31;35313;-63
2022/03/22 12:22:01;;;;;;;;;;;;;;;23.90;11.58;101390.19;4482740;31;35170;-63
2022/03/22 12:24:33;;;;;;;;;;;;;;;23.82;11.82;101392.03;4483902;31;34228;-62
2022/03/22 12:27:04;;;;;;;;;;;;;;;24.33;11.58;101387.50;4482705;31;34279;-64
2022/03/22 12:29:54;;;;;;;;;;;;;;;24.75;11.24;101378.44;4486027;31;33069;-64
2022/03/22 12:32:27;;;;;;;;;;;;;;;24.08;10.72;101367.41;4488545;31;34529;-64
2022/03/22 12:34:58;;;;;;;;;;;;;;;24.14;11.26;101361.25;4486006;31;34154;-64
2022/03/22 12:37:33;;;;;;;;;;;;;;;24.35;11.72;101358.97;4481279;31;34116;-64
2022/03/22 12:40:00;;;;;;;;;;;;;;;24.39;11.50;101364.94;4486626;31;34645;-64
2022/03/22 12:42:31;;;;;;;;;;;;;;;24.07;10.92;101354.72;4471833;31;33012;-64
2022/03/22 12:45:10;;;;;;;;;;;;;;;23.52;11.02;101353.19;4483787;31;33185;-62
2022/03/22 12:47:39;;;;;;;;;;;;;;;23.59;10.85;101350.66;4482742;31;34732;-63
2022/03/22 12:50:11;;;;;;;;;;;;;;;22.93;11.34;101352.00;4484729;31;33880;-61
2022/03/22 12:52:40;;;;;;;;;;;;;;;23.10;11.98;101347.56;4489387;31;34440;-62
2022/03/22 12:55:11;;;;;;;;;;;;;;;22.56;11.59;101342.91;4489192;31;33129;-62
2022/03/22 12:57:46;;;;;;;;;;;;;;;22.42;12.03;101337.12;4491795;31;33258;-62
2022/03/22 13:00:32;;;;;;;;;;;;;;;22.55;11.75;101330.28;4487048;31;34441;-64
2022/03/22 13:03:06;;;;;;;;;;;;;;;23.05;11.44;101323.47;4483759;31;33076;-62
2022/03/22 13:05:47;;;;;;;;;;;;;;;22.30;12.17;101323.69;4485059;31;33893;-63
2022/03/22 13:08:23;;;;;;;;;;;;;;;22.11;12.50;101312.88;4482675;31;32227;-64
2022/03/22 13:16:31;;;;;;;;;;;;;;;22.63;13.06;101306.81;4483036;31;35384;-64
2022/03/22 13:19:00;;;;;;;;;;;;;;;22.71;12.76;101301.44;4482118;31;33185;-64
2022/03/22 13:21:33;;;;;;;;;;;;;;;22.24;11.97;101293.44;4482573;31;34007;-64
2022/03/22 13:24:08;;;;;;;;;;;;;;;21.17;12.79;101296.53;4483492;31;33312;-64
2022/03/22 13:26:51;;;;;;;;;;;;;;;21.23;13.15;101293.22;4486600;31;33089;-64
2022/03/22 13:29:19;;;;;;;;;;;;;;;21.69;14.01;101296.12;4481805;31;34478;-64
2022/03/22 13:31:58;;;;;;;;;;;;;;;22.28;13.60;101293.00;4469034;32;32830;-64
2022/03/22 13:34:31;;;;;;;;;;;;;;;22.20;13.71;101286.59;4476169;31;34561;-63
2022/03/22 13:37:04;;;;;;;;;;;;;;;22.84;13.40;101287.41;4482182;31;34776;-63
2022/03/22 13:39:32;;;;;;;;;;;;;;;23.33;12.44;101283.22;4479918;31;33215;-63
2022/03/22 13:42:03;;;;;;;;;;;;;;;22.63;13.11;101274.06;4482719;31;35354;-61
2022/03/22 13:44:31;;;;;;;;;;;;;;;22.44;13.23;101288.72;4480720;31;33942;-63
2022/03/22 13:47:00;;;;;;;;;;;;;;;23.10;12.09;101282.03;4469468;31;33979;-63
2022/03/22 13:49:34;;;;;;;;;;;;;;;22.41;12.63;101281.72;4483971;31;32215;-63
2022/03/22 13:52:02;;;;;;;;;;;;;;;23.05;12.46;101276.16;4483481;31;33004;-62